East Longmeadow, Massachusetts
Current Conditions -  °F | °C
As of 8:44 AM on Wednesday 22 Oct 2014 (Local Time) from KCEF Reporting Station
Overcast Overcast  
Wind Chill: 52°   Ceiling: 1500
Heat Index: 52°   Visibility: 10mi
Dew Point: 48°   Wind: 13mph
Humidity: 88%   Direction: 40°NE
Pressure: 30.01"   Gusts: NA
Location:  42.06°N, 72.51°W
Report Text: KCEF 221244Z AUTO 04011KT 10SM OVC015 11/09 A3001 RMK AO2
Loading
Personal Weather Stations






























Interactive Weather Map
Tropical Storm Tracking
New forecast layout! Learn more

10-Day Weather Forecast

Advertisements
Track Severe Weather on mobile